sensor_id;sensor_type;location;lat;lon;timestamp;pressure;altitude;pressure_sealevel;temperature;humidity
11343;BME280;5726;42.160;24.746;2022-09-21T00:00:23;99620.72;;;15.54;60.58
11343;BME280;5726;42.160;24.746;2022-09-21T00:02:49;99606.25;;;15.42;60.71
11343;BME280;5726;42.160;24.746;2022-09-21T00:05:14;99610.97;;;15.11;62.21
11343;BME280;5726;42.160;24.746;2022-09-21T00:07:41;99611.16;;;15.23;61.86
11343;BME280;5726;42.160;24.746;2022-09-21T00:10:08;99617.94;;;15.04;62.88
11343;BME280;5726;42.160;24.746;2022-09-21T00:12:33;99604.94;;;15.14;62.28
11343;BME280;5726;42.160;24.746;2022-09-21T00:15:05;99610.38;;;15.39;61.38
11343;BME280;5726;42.160;24.746;2022-09-21T00:17:31;99610.69;;;15.38;61.14
11343;BME280;5726;42.160;24.746;2022-09-21T00:19:56;99606.72;;;15.44;60.85
11343;BME280;5726;42.160;24.746;2022-09-21T00:22:21;99613.38;;;15.38;60.90
11343;BME280;5726;42.160;24.746;2022-09-21T00:24:47;99612.53;;;15.12;61.86
11343;BME280;5726;42.160;24.746;2022-09-21T00:27:12;99611.09;;;15.06;62.37
11343;BME280;5726;42.160;24.746;2022-09-21T00:29:38;99618.00;;;15.21;61.68
11343;BME280;5726;42.160;24.746;2022-09-21T00:32:03;99618.13;;;15.16;61.96
11343;BME280;5726;42.160;24.746;2022-09-21T00:34:29;99620.78;;;15.07;62.13
11343;BME280;5726;42.160;24.746;2022-09-21T00:36:54;99622.84;;;15.02;62.56
11343;BME280;5726;42.160;24.746;2022-09-21T00:39:19;99624.25;;;14.91;63.15
11343;BME280;5726;42.160;24.746;2022-09-21T00:41:45;99622.22;;;15.05;62.51
11343;BME280;5726;42.160;24.746;2022-09-21T00:46:43;99610.69;;;15.38;60.92
11343;BME280;5726;42.160;24.746;2022-09-21T00:49:09;99607.22;;;15.46;60.54
11343;BME280;5726;42.160;24.746;2022-09-21T00:51:36;99602.91;;;15.28;61.25
11343;BME280;5726;42.160;24.746;2022-09-21T00:54:07;99610.97;;;15.11;61.86
11343;BME280;5726;42.160;24.746;2022-09-21T00:56:35;99606.63;;;14.93;62.85
11343;BME280;5726;42.160;24.746;2022-09-21T00:59:01;99611.41;;;14.96;62.86
11343;BME280;5726;42.160;24.746;2022-09-21T01:01:28;99618.06;;;14.99;62.74
11343;BME280;5726;42.160;24.746;2022-09-21T01:03:53;99614.13;;;15.13;61.75
11343;BME280;5726;42.160;24.746;2022-09-21T01:06:22;99613.81;;;14.98;62.54
11343;BME280;5726;42.160;24.746;2022-09-21T01:08:54;99603.63;;;15.03;61.74
11343;BME280;5726;42.160;24.746;2022-09-21T01:16:48;99594.09;;;14.97;60.20
11343;BME280;5726;42.160;24.746;2022-09-21T01:22:00;99591.81;;;14.82;61.30
11343;BME280;5726;42.160;24.746;2022-09-21T01:30:14;99582.66;;;15.00;61.09
11343;BME280;5726;42.160;24.746;2022-09-21T01:32:49;99583.19;;;15.28;60.12
11343;BME280;5726;42.160;24.746;2022-09-21T01:35:27;99584.09;;;15.06;60.56
11343;BME280;5726;42.160;24.746;2022-09-21T01:38:02;99582.56;;;15.22;59.85
11343;BME280;5726;42.160;24.746;2022-09-21T01:40:32;99582.72;;;15.34;58.96
11343;BME280;5726;42.160;24.746;2022-09-21T01:43:00;99570.94;;;15.47;58.69
11343;BME280;5726;42.160;24.746;2022-09-21T01:45:31;99574.94;;;15.49;58.39
11343;BME280;5726;42.160;24.746;2022-09-21T01:47:59;99573.03;;;15.58;58.38
11343;BME280;5726;42.160;24.746;2022-09-21T01:50:30;99574.31;;;15.35;58.76
11343;BME280;5726;42.160;24.746;2022-09-21T01:53:01;99571.44;;;15.24;59.71
11343;BME280;5726;42.160;24.746;2022-09-21T01:55:44;99577.81;;;15.19;59.93
11343;BME280;5726;42.160;24.746;2022-09-21T02:00:53;99577.13;;;15.14;60.89
11343;BME280;5726;42.160;24.746;2022-09-21T02:03:33;99579.03;;;15.22;60.83
11343;BME280;5726;42.160;24.746;2022-09-21T02:06:01;99578.72;;;15.15;60.84
11343;BME280;5726;42.160;24.746;2022-09-21T02:08:32;99577.13;;;15.14;60.90
11343;BME280;5726;42.160;24.746;2022-09-21T02:10:59;99577.47;;;15.37;60.46
11343;BME280;5726;42.160;24.746;2022-09-21T02:13:30;99581.91;;;15.33;60.24
11343;BME280;5726;42.160;24.746;2022-09-21T02:19:05;99575.72;;;15.33;60.67
11343;BME280;5726;42.160;24.746;2022-09-21T02:27:52;99582.19;;;15.15;60.85
11343;BME280;5726;42.160;24.746;2022-09-21T02:30:01;99582.25;;;15.40;60.48
11343;BME280;5726;42.160;24.746;2022-09-21T02:35:47;99587.50;;;15.54;59.92
11343;BME280;5726;42.160;24.746;2022-09-21T02:38:21;99585.44;;;15.34;60.80
11343;BME280;5726;42.160;24.746;2022-09-21T02:41:00;99585.91;;;15.19;61.79
11343;BME280;5726;42.160;24.746;2022-09-21T02:46:14;99592.97;;;14.98;62.96
11343;BME280;5726;42.160;24.746;2022-09-21T02:48:48;99585.94;;;14.81;64.13
11343;BME280;5726;42.160;24.746;2022-09-21T02:51:23;99589.13;;;14.82;64.20
11343;BME280;5726;42.160;24.746;2022-09-21T02:53:52;99594.72;;;14.94;64.15
11343;BME280;5726;42.160;24.746;2022-09-21T02:56:19;99592.88;;;14.65;65.21
11343;BME280;5726;42.160;24.746;2022-09-21T02:58:50;99590.94;;;15.12;63.22
11343;BME280;5726;42.160;24.746;2022-09-21T03:01:19;99598.03;;;14.91;64.79
11343;BME280;5726;42.160;24.746;2022-09-21T03:03:46;99588.84;;;14.92;64.65
11343;BME280;5726;42.160;24.746;2022-09-21T03:06:12;99593.06;;;14.77;65.31
11343;BME280;5726;42.160;24.746;2022-09-21T03:08:38;99590.81;;;14.62;66.71
11343;BME280;5726;42.160;24.746;2022-09-21T03:11:03;99595.97;;;14.80;65.88
11343;BME280;5726;42.160;24.746;2022-09-21T03:13:28;99593.28;;;14.88;65.93
11343;BME280;5726;42.160;24.746;2022-09-21T03:16:03;99600.47;;;15.01;65.76
11343;BME280;5726;42.160;24.746;2022-09-21T03:18:30;99594.44;;;15.13;64.77
11343;BME280;5726;42.160;24.746;2022-09-21T03:20:55;99602.88;;;15.11;65.28
11343;BME280;5726;42.160;24.746;2022-09-21T03:23:21;99602.09;;;15.19;64.97
11343;BME280;5726;42.160;24.746;2022-09-21T03:25:47;99589.06;;;15.38;64.36
11343;BME280;5726;42.160;24.746;2022-09-21T03:28:13;99608.41;;;15.06;65.62
11343;BME280;5726;42.160;24.746;2022-09-21T03:30:39;99599.88;;;15.21;65.07
11343;BME280;5726;42.160;24.746;2022-09-21T03:33:05;99604.66;;;15.24;65.21
11343;BME280;5726;42.160;24.746;2022-09-21T03:35:31;99603.88;;;15.49;64.33
11343;BME280;5726;42.160;24.746;2022-09-21T03:38:00;99612.59;;;15.29;65.60
11343;BME280;5726;42.160;24.746;2022-09-21T03:40:26;99614.28;;;15.00;66.80
11343;BME280;5726;42.160;24.746;2022-09-21T03:42:53;99611.50;;;14.75;68.20
11343;BME280;5726;42.160;24.746;2022-09-21T03:45:19;99611.06;;;14.89;67.76
11343;BME280;5726;42.160;24.746;2022-09-21T03:47:49;99609.25;;;14.68;68.22
11343;BME280;5726;42.160;24.746;2022-09-21T03:50:14;99612.34;;;14.92;67.63
11343;BME280;5726;42.160;24.746;2022-09-21T03:52:40;99609.28;;;14.77;68.26
11343;BME280;5726;42.160;24.746;2022-09-21T03:55:07;99612.78;;;14.85;68.05
11343;BME280;5726;42.160;24.746;2022-09-21T03:57:34;99610.66;;;14.66;69.02
11343;BME280;5726;42.160;24.746;2022-09-21T04:00:01;99611.97;;;14.77;68.98
11343;BME280;5726;42.160;24.746;2022-09-21T04:02:28;99605.47;;;14.78;68.91
11343;BME280;5726;42.160;24.746;2022-09-21T04:04:54;99608.38;;;14.89;68.51
11343;BME280;5726;42.160;24.746;2022-09-21T04:07:19;99612.28;;;14.67;69.46
11343;BME280;5726;42.160;24.746;2022-09-21T04:09:45;99618.31;;;14.72;69.46
11343;BME280;5726;42.160;24.746;2022-09-21T04:12:10;99621.78;;;14.64;70.16
11343;BME280;5726;42.160;24.746;2022-09-21T04:14:36;99620.25;;;14.80;69.57
11343;BME280;5726;42.160;24.746;2022-09-21T04:17:01;99626.47;;;14.97;69.17
11343;BME280;5726;42.160;24.746;2022-09-21T04:19:27;99619.13;;;14.73;70.04
11343;BME280;5726;42.160;24.746;2022-09-21T04:21:52;99633.00;;;14.96;68.64
11343;BME280;5726;42.160;24.746;2022-09-21T04:24:19;99631.13;;;15.05;68.84
11343;BME280;5726;42.160;24.746;2022-09-21T04:26:44;99620.47;;;15.00;69.14
11343;BME280;5726;42.160;24.746;2022-09-21T04:29:12;99629.72;;;15.16;69.00
11343;BME280;5726;42.160;24.746;2022-09-21T04:31:37;99621.13;;;15.14;68.78
11343;BME280;5726;42.160;24.746;2022-09-21T04:34:03;99624.03;;;15.26;68.23
11343;BME280;5726;42.160;24.746;2022-09-21T04:36:29;99628.78;;;15.29;69.55
11343;BME280;5726;42.160;24.746;2022-09-21T04:38:57;99634.00;;;15.09;69.59
11343;BME280;5726;42.160;24.746;2022-09-21T04:41:22;99636.38;;;15.10;69.16
11343;BME280;5726;42.160;24.746;2022-09-21T04:43:48;99633.72;;;15.19;69.47
11343;BME280;5726;42.160;24.746;2022-09-21T04:46:16;99628.34;;;15.35;68.24
11343;BME280;5726;42.160;24.746;2022-09-21T04:48:42;99629.72;;;15.16;69.24
11343;BME280;5726;42.160;24.746;2022-09-21T04:51:08;99630.31;;;14.96;70.55
11343;BME280;5726;42.160;24.746;2022-09-21T04:53:35;99634.16;;;15.12;70.08
11343;BME280;5726;42.160;24.746;2022-09-21T04:56:02;99627.69;;;15.30;71.37
11343;BME280;5726;42.160;24.746;2022-09-21T04:58:29;99636.13;;;15.20;71.21
11343;BME280;5726;42.160;24.746;2022-09-21T05:00:54;99629.63;;;15.46;70.15
11343;BME280;5726;42.160;24.746;2022-09-21T05:03:21;99632.94;;;15.60;70.17
11343;BME280;5726;42.160;24.746;2022-09-21T05:05:48;99626.13;;;15.37;69.03
11343;BME280;5726;42.160;24.746;2022-09-21T05:08:15;99623.25;;;15.42;71.73
11343;BME280;5726;42.160;24.746;2022-09-21T05:10:41;99627.53;;;15.60;68.87
11343;BME280;5726;42.160;24.746;2022-09-21T05:13:06;99631.06;;;15.77;67.67
11343;BME280;5726;42.160;24.746;2022-09-21T05:15:32;99632.16;;;15.51;67.25
11343;BME280;5726;42.160;24.746;2022-09-21T05:17:57;99634.38;;;15.66;67.35
11343;BME280;5726;42.160;24.746;2022-09-21T05:20:23;99628.97;;;15.66;67.38
11343;BME280;5726;42.160;24.746;2022-09-21T05:22:48;99633.28;;;15.59;68.13
11343;BME280;5726;42.160;24.746;2022-09-21T05:25:14;99626.09;;;16.05;67.08
11343;BME280;5726;42.160;24.746;2022-09-21T05:27:39;99627.41;;;15.82;67.23
11343;BME280;5726;42.160;24.746;2022-09-21T05:30:05;99625.44;;;16.25;65.36
11343;BME280;5726;42.160;24.746;2022-09-21T05:35:39;99618.47;;;16.07;65.65
11343;BME280;5726;42.160;24.746;2022-09-21T05:38:12;99624.34;;;16.17;65.69
11343;BME280;5726;42.160;24.746;2022-09-21T05:40:41;99624.78;;;16.36;64.80
11343;BME280;5726;42.160;24.746;2022-09-21T05:43:07;99626.69;;;16.35;64.52
11343;BME280;5726;42.160;24.746;2022-09-21T05:45:33;99626.91;;;16.68;63.59
11343;BME280;5726;42.160;24.746;2022-09-21T05:48:21;99618.47;;;16.61;64.43
11343;BME280;5726;42.160;24.746;2022-09-21T05:51:12;99620.13;;;16.45;65.05
11343;BME280;5726;42.160;24.746;2022-09-21T05:53:58;99625.91;;;16.35;64.51
11343;BME280;5726;42.160;24.746;2022-09-21T05:59:09;99621.22;;;16.52;64.76
11343;BME280;5726;42.160;24.746;2022-09-21T06:04:24;99634.59;;;16.94;63.36
11343;BME280;5726;42.160;24.746;2022-09-21T06:06:49;99634.84;;;16.73;63.94
11343;BME280;5726;42.160;24.746;2022-09-21T06:09:15;99631.88;;;16.94;62.93
11343;BME280;5726;42.160;24.746;2022-09-21T06:11:41;99634.88;;;17.30;61.55
11343;BME280;5726;42.160;24.746;2022-09-21T06:14:09;99642.94;;;17.10;61.76
11343;BME280;5726;42.160;24.746;2022-09-21T06:16:39;99634.38;;;16.99;61.73
11343;BME280;5726;42.160;24.746;2022-09-21T06:19:05;99636.16;;;16.95;62.17
11343;BME280;5726;42.160;24.746;2022-09-21T06:21:31;99646.06;;;16.91;62.37
11343;BME280;5726;42.160;24.746;2022-09-21T06:24:00;99646.06;;;17.20;65.48
11343;BME280;5726;42.160;24.746;2022-09-21T06:26:26;99644.22;;;17.41;63.61
11343;BME280;5726;42.160;24.746;2022-09-21T06:28:51;99647.28;;;17.31;62.56
11343;BME280;5726;42.160;24.746;2022-09-21T06:31:17;99639.69;;;17.16;62.82
11343;BME280;5726;42.160;24.746;2022-09-21T06:33:42;99640.84;;;17.15;61.14
11343;BME280;5726;42.160;24.746;2022-09-21T06:36:08;99637.59;;;17.30;61.44
11343;BME280;5726;42.160;24.746;2022-09-21T06:38:34;99640.56;;;17.08;60.44
11343;BME280;5726;42.160;24.746;2022-09-21T06:41:01;99640.66;;;16.91;61.72
11343;BME280;5726;42.160;24.746;2022-09-21T06:43:27;99635.47;;;16.78;62.84
11343;BME280;5726;42.160;24.746;2022-09-21T06:45:53;99640.00;;;16.94;61.94
11343;BME280;5726;42.160;24.746;2022-09-21T06:48:19;99643.06;;;17.13;61.15
11343;BME280;5726;42.160;24.746;2022-09-21T06:50:45;99646.25;;;17.15;60.86
11343;BME280;5726;42.160;24.746;2022-09-21T06:53:10;99646.31;;;17.35;59.77
11343;BME280;5726;42.160;24.746;2022-09-21T06:55:35;99651.69;;;17.44;60.21
11343;BME280;5726;42.160;24.746;2022-09-21T06:58:02;99651.97;;;17.51;59.83
11343;BME280;5726;42.160;24.746;2022-09-21T07:00:29;99655.25;;;17.76;58.61
11343;BME280;5726;42.160;24.746;2022-09-21T07:02:54;99651.78;;;18.08;58.02
11343;BME280;5726;42.160;24.746;2022-09-21T07:05:20;99650.84;;;18.68;56.53
11343;BME280;5726;42.160;24.746;2022-09-21T07:07:46;99646.38;;;19.32;55.34
11343;BME280;5726;42.160;24.746;2022-09-21T07:10:11;99651.91;;;19.86;53.48
11343;BME280;5726;42.160;24.746;2022-09-21T07:12:36;99649.66;;;19.76;50.75
11343;BME280;5726;42.160;24.746;2022-09-21T07:15:03;99647.06;;;19.17;53.75
11343;BME280;5726;42.160;24.746;2022-09-21T07:17:33;99647.72;;;19.26;52.77
11343;BME280;5726;42.160;24.746;2022-09-21T07:20:00;99643.19;;;19.06;52.84
11343;BME280;5726;42.160;24.746;2022-09-21T07:22:30;99641.16;;;19.03;51.53
11343;BME280;5726;42.160;24.746;2022-09-21T07:24:56;99647.50;;;19.07;51.29
11343;BME280;5726;42.160;24.746;2022-09-21T07:27:25;99649.16;;;19.00;51.50
11343;BME280;5726;42.160;24.746;2022-09-21T07:29:52;99638.41;;;19.27;50.91
11343;BME280;5726;42.160;24.746;2022-09-21T07:32:18;99645.19;;;19.45;51.12
11343;BME280;5726;42.160;24.746;2022-09-21T07:34:43;99645.84;;;19.54;49.46
11343;BME280;5726;42.160;24.746;2022-09-21T07:37:11;99640.84;;;19.67;49.93
11343;BME280;5726;42.160;24.746;2022-09-21T07:39:36;99639.44;;;19.34;49.83
11343;BME280;5726;42.160;24.746;2022-09-21T07:42:03;99629.72;;;19.72;49.28
11343;BME280;5726;42.160;24.746;2022-09-21T07:44:29;99636.38;;;20.14;48.06
11343;BME280;5726;42.160;24.746;2022-09-21T07:46:54;99639.47;;;20.28;47.43
11343;BME280;5726;42.160;24.746;2022-09-21T07:49:20;99637.53;;;20.28;47.17
11343;BME280;5726;42.160;24.746;2022-09-21T07:51:45;99635.31;;;20.61;47.18
11343;BME280;5726;42.160;24.746;2022-09-21T07:54:11;99632.81;;;20.68;46.68
11343;BME280;5726;42.160;24.746;2022-09-21T07:56:37;99633.34;;;20.73;45.81
11343;BME280;5726;42.160;24.746;2022-09-21T07:59:03;99630.53;;;20.85;46.50
11343;BME280;5726;42.160;24.746;2022-09-21T08:01:37;99629.44;;;20.74;46.49
11343;BME280;5726;42.160;24.746;2022-09-21T08:04:05;99630.41;;;20.51;46.58
11343;BME280;5726;42.160;24.746;2022-09-21T08:06:32;99633.56;;;20.11;47.59
11343;BME280;5726;42.160;24.746;2022-09-21T08:09:03;99625.50;;;20.14;47.06
11343;BME280;5726;42.160;24.746;2022-09-21T08:11:30;99629.88;;;20.03;47.43
11343;BME280;5726;42.160;24.746;2022-09-21T08:13:59;99616.56;;;19.74;48.01
11343;BME280;5726;42.160;24.746;2022-09-21T08:16:25;99613.22;;;20.20;47.61
11343;BME280;5726;42.160;24.746;2022-09-21T08:18:51;99610.84;;;20.49;46.07
11343;BME280;5726;42.160;24.746;2022-09-21T08:21:17;99592.25;;;20.66;46.08
11343;BME280;5726;42.160;24.746;2022-09-21T08:23:44;99605.72;;;20.90;45.23
11343;BME280;5726;42.160;24.746;2022-09-21T08:26:12;99601.72;;;21.18;44.32
11343;BME280;5726;42.160;24.746;2022-09-21T08:28:44;99602.53;;;21.04;43.73
11343;BME280;5726;42.160;24.746;2022-09-21T08:31:13;99599.63;;;20.97;43.28
11343;BME280;5726;42.160;24.746;2022-09-21T08:33:39;99597.97;;;21.08;43.04
11343;BME280;5726;42.160;24.746;2022-09-21T08:36:04;99596.00;;;21.08;43.28
11343;BME280;5726;42.160;24.746;2022-09-21T08:38:35;99585.31;;;20.84;43.48
11343;BME280;5726;42.160;24.746;2022-09-21T08:41:03;99582.03;;;20.63;44.14
11343;BME280;5726;42.160;24.746;2022-09-21T08:43:45;99586.19;;;20.58;42.72
11343;BME280;5726;42.160;24.746;2022-09-21T08:46:17;99586.56;;;20.71;43.11
11343;BME280;5726;42.160;24.746;2022-09-21T08:51:25;99576.00;;;20.85;41.91
11343;BME280;5726;42.160;24.746;2022-09-21T08:53:56;99576.34;;;20.68;41.97
11343;BME280;5726;42.160;24.746;2022-09-21T08:56:25;99572.31;;;20.78;42.57
11343;BME280;5726;42.160;24.746;2022-09-21T08:58:50;99574.47;;;21.03;42.10
11343;BME280;5726;42.160;24.746;2022-09-21T09:06:26;99566.91;;;21.31;39.81
11343;BME280;5726;42.160;24.746;2022-09-21T09:17:34;99553.97;;;21.09;40.54
11343;BME280;5726;42.160;24.746;2022-09-21T09:20:10;99547.81;;;21.31;40.68
11343;BME280;5726;42.160;24.746;2022-09-21T09:23:02;99549.47;;;21.35;40.69
11343;BME280;5726;42.160;24.746;2022-09-21T09:25:40;99538.13;;;21.33;39.82
11343;BME280;5726;42.160;24.746;2022-09-21T09:31:04;99536.47;;;21.29;39.53
11343;BME280;5726;42.160;24.746;2022-09-21T09:34:02;99553.00;;;21.36;38.01
11343;BME280;5726;42.160;24.746;2022-09-21T09:36:35;99537.84;;;21.19;39.49
11343;BME280;5726;42.160;24.746;2022-09-21T09:39:04;99536.72;;;21.39;40.30
11343;BME280;5726;42.160;24.746;2022-09-21T09:41:43;99541.03;;;21.59;39.81
11343;BME280;5726;42.160;24.746;2022-09-21T09:49:51;99535.94;;;21.39;38.69
11343;BME280;5726;42.160;24.746;2022-09-21T09:52:18;99534.09;;;21.61;39.03
11343;BME280;5726;42.160;24.746;2022-09-21T09:54:44;99529.56;;;21.69;38.73
11343;BME280;5726;42.160;24.746;2022-09-21T09:57:09;99518.50;;;22.03;38.72
11343;BME280;5726;42.160;24.746;2022-09-21T09:59:51;99524.66;;;21.59;39.09
11343;BME280;5726;42.160;24.746;2022-09-21T10:02:27;99527.03;;;21.60;39.19
11343;BME280;5726;42.160;24.746;2022-09-21T10:10:00;99508.88;;;22.09;39.22
11343;BME280;5726;42.160;24.746;2022-09-21T10:12:26;99494.00;;;21.65;39.07
11343;BME280;5726;42.160;24.746;2022-09-21T10:14:55;99499.69;;;21.57;40.33
11343;BME280;5726;42.160;24.746;2022-09-21T10:17:24;99486.47;;;21.59;40.07
11343;BME280;5726;42.160;24.746;2022-09-21T10:20:00;99505.91;;;21.58;39.12
11343;BME280;5726;42.160;24.746;2022-09-21T10:22:27;99500.09;;;21.40;39.87
11343;BME280;5726;42.160;24.746;2022-09-21T10:24:53;99495.97;;;21.46;39.56
11343;BME280;5726;42.160;24.746;2022-09-21T10:27:28;99492.69;;;21.41;38.19
11343;BME280;5726;42.160;24.746;2022-09-21T10:29:54;99494.47;;;20.96;38.65
11343;BME280;5726;42.160;24.746;2022-09-21T10:32:25;99485.84;;;20.94;38.89
11343;BME280;5726;42.160;24.746;2022-09-21T10:35:12;99485.16;;;21.34;38.31
11343;BME280;5726;42.160;24.746;2022-09-21T10:37:40;99480.44;;;21.31;38.12
11343;BME280;5726;42.160;24.746;2022-09-21T10:42:43;99475.47;;;21.18;38.81
11343;BME280;5726;42.160;24.746;2022-09-21T10:45:14;99480.44;;;21.31;37.69
11343;BME280;5726;42.160;24.746;2022-09-21T10:47:46;99470.44;;;21.39;37.96
11343;BME280;5726;42.160;24.746;2022-09-21T10:50:29;99475.06;;;21.54;37.60
11343;BME280;5726;42.160;24.746;2022-09-21T10:53:25;99476.63;;;21.73;37.75
11343;BME280;5726;42.160;24.746;2022-09-21T10:59:09;99488.38;;;21.02;38.43
11343;BME280;5726;42.160;24.746;2022-09-21T11:01:35;99471.88;;;21.14;37.95
11343;BME280;5726;42.160;24.746;2022-09-21T11:04:07;99475.81;;;21.35;38.05
11343;BME280;5726;42.160;24.746;2022-09-21T11:06:40;99469.31;;;21.59;37.96
11343;BME280;5726;42.160;24.746;2022-09-21T11:09:50;99464.00;;;21.65;36.33
11343;BME280;5726;42.160;24.746;2022-09-21T11:17:44;99470.63;;;21.87;35.40
11343;BME280;5726;42.160;24.746;2022-09-21T11:20:27;99465.50;;;21.63;36.47
11343;BME280;5726;42.160;24.746;2022-09-21T11:23:02;99461.28;;;21.47;37.17
11343;BME280;5726;42.160;24.746;2022-09-21T11:25:52;99465.44;;;21.60;36.91
11343;BME280;5726;42.160;24.746;2022-09-21T11:28:32;99455.25;;;21.57;36.98
11343;BME280;5726;42.160;24.746;2022-09-21T11:39:31;99451.91;;;21.10;37.72
11343;BME280;5726;42.160;24.746;2022-09-21T11:45:06;99454.28;;;21.30;37.57
11343;BME280;5726;42.160;24.746;2022-09-21T11:47:46;99441.88;;;20.95;37.76
11343;BME280;5726;42.160;24.746;2022-09-21T11:50:39;99438.59;;;21.24;37.49
11343;BME280;5726;42.160;24.746;2022-09-21T12:07:09;99442.28;;;21.72;37.44
11343;BME280;5726;42.160;24.746;2022-09-21T12:12:21;99444.06;;;21.65;36.74
11343;BME280;5726;42.160;24.746;2022-09-21T12:17:48;99441.94;;;21.36;36.84
11343;BME280;5726;42.160;24.746;2022-09-21T12:23:25;99446.47;;;21.10;38.12
11343;BME280;5726;42.160;24.746;2022-09-21T12:25:55;99444.66;;;20.80;38.78
11343;BME280;5726;42.160;24.746;2022-09-21T12:28:33;99438.06;;;21.00;38.93
11343;BME280;5726;42.160;24.746;2022-09-21T12:31:13;99441.72;;;21.07;38.69
11343;BME280;5726;42.160;24.746;2022-09-21T12:33:50;99435.56;;;21.10;39.04
11343;BME280;5726;42.160;24.746;2022-09-21T12:36:24;99440.16;;;21.06;38.60
11343;BME280;5726;42.160;24.746;2022-09-21T12:39:00;99437.00;;;21.04;38.95
11343;BME280;5726;42.160;24.746;2022-09-21T12:41:36;99422.22;;;21.05;38.30
11343;BME280;5726;42.160;24.746;2022-09-21T12:44:21;99424.22;;;21.27;38.24
11343;BME280;5726;42.160;24.746;2022-09-21T12:46:57;99432.56;;;21.15;40.24
11343;BME280;5726;42.160;24.746;2022-09-21T12:49:38;99432.41;;;21.08;39.03
11343;BME280;5726;42.160;24.746;2022-09-21T12:52:06;99436.94;;;21.01;39.84
11343;BME280;5726;42.160;24.746;2022-09-21T12:55:00;99430.69;;;21.00;39.54
11343;BME280;5726;42.160;24.746;2022-09-21T13:00:17;99411.56;;;21.38;39.77
11343;BME280;5726;42.160;24.746;2022-09-21T13:02:55;99427.38;;;21.29;39.41
11343;BME280;5726;42.160;24.746;2022-09-21T13:08:10;99424.78;;;20.98;40.28
11343;BME280;5726;42.160;24.746;2022-09-21T13:11:01;99432.25;;;20.82;40.94
11343;BME280;5726;42.160;24.746;2022-09-21T13:13:49;99425.56;;;20.80;41.71
11343;BME280;5726;42.160;24.746;2022-09-21T13:16:30;99424.56;;;20.69;40.73
11343;BME280;5726;42.160;24.746;2022-09-21T13:19:02;99426.94;;;20.70;40.73
11343;BME280;5726;42.160;24.746;2022-09-21T13:21:30;99415.44;;;20.80;40.76
11343;BME280;5726;42.160;24.746;2022-09-21T13:24:03;99425.81;;;20.90;40.76
11343;BME280;5726;42.160;24.746;2022-09-21T13:26:57;99421.16;;;21.10;39.42
11343;BME280;5726;42.160;24.746;2022-09-21T13:29:34;99413.88;;;21.17;40.62
11343;BME280;5726;42.160;24.746;2022-09-21T13:32:21;99416.13;;;20.93;40.45
11343;BME280;5726;42.160;24.746;2022-09-21T13:34:47;99411.16;;;20.98;39.81
11343;BME280;5726;42.160;24.746;2022-09-21T13:47:43;99417.63;;;21.09;38.39
11343;BME280;5726;42.160;24.746;2022-09-21T13:50:37;99415.47;;;21.18;38.25
11343;BME280;5726;42.160;24.746;2022-09-21T13:53:16;99409.94;;;20.77;39.47
11343;BME280;5726;42.160;24.746;2022-09-21T13:55:50;99408.00;;;20.77;39.79
11343;BME280;5726;42.160;24.746;2022-09-21T13:58:25;99409.00;;;20.54;40.42
11343;BME280;5726;42.160;24.746;2022-09-21T14:06:01;99417.69;;;20.75;41.07
11343;BME280;5726;42.160;24.746;2022-09-21T14:08:38;99407.72;;;20.82;40.96
11343;BME280;5726;42.160;24.746;2022-09-21T14:11:38;99411.16;;;20.79;41.29
11343;BME280;5726;42.160;24.746;2022-09-21T14:14:12;99408.91;;;20.66;40.08
11343;BME280;5726;42.160;24.746;2022-09-21T14:24:39;99421.44;;;20.36;39.45
11343;BME280;5726;42.160;24.746;2022-09-21T14:35:17;99416.72;;;20.33;39.72
11343;BME280;5726;42.160;24.746;2022-09-21T14:37:59;99417.94;;;20.20;40.66
11343;BME280;5726;42.160;24.746;2022-09-21T14:40:30;99417.25;;;20.23;40.58
11343;BME280;5726;42.160;24.746;2022-09-21T14:42:58;99430.00;;;20.04;41.70
11343;BME280;5726;42.160;24.746;2022-09-21T14:51:19;99435.00;;;20.02;43.62
11343;BME280;5726;42.160;24.746;2022-09-21T14:59:42;99432.69;;;19.73;44.70
11343;BME280;5726;42.160;24.746;2022-09-21T15:07:39;99442.13;;;19.21;46.50
11343;BME280;5726;42.160;24.746;2022-09-21T15:10:35;99456.41;;;19.46;46.41
11343;BME280;5726;42.160;24.746;2022-09-21T15:19:13;99462.34;;;19.63;46.46
11343;BME280;5726;42.160;24.746;2022-09-21T15:21:43;99469.91;;;19.42;46.75
11343;BME280;5726;42.160;24.746;2022-09-21T15:27:00;99468.47;;;19.60;47.00
11343;BME280;5726;42.160;24.746;2022-09-21T15:29:28;99474.69;;;19.61;47.80
11343;BME280;5726;42.160;24.746;2022-09-21T15:31:55;99470.03;;;19.88;46.31
11343;BME280;5726;42.160;24.746;2022-09-21T15:34:22;99481.41;;;19.78;45.96
11343;BME280;5726;42.160;24.746;2022-09-21T15:36:48;99478.47;;;19.71;47.45
11343;BME280;5726;42.160;24.746;2022-09-21T15:39:27;99485.44;;;19.84;45.75
11343;BME280;5726;42.160;24.746;2022-09-21T15:44:33;99483.13;;;20.14;44.41
11343;BME280;5726;42.160;24.746;2022-09-21T15:47:01;99490.47;;;19.82;44.84
11343;BME280;5726;42.160;24.746;2022-09-21T15:49:28;99494.31;;;19.81;45.38
11343;BME280;5726;42.160;24.746;2022-09-21T15:52:01;99492.63;;;19.77;45.86
11343;BME280;5726;42.160;24.746;2022-09-21T15:54:59;99492.19;;;19.75;46.12
11343;BME280;5726;42.160;24.746;2022-09-21T16:00:02;99493.59;;;19.42;46.23
11343;BME280;5726;42.160;24.746;2022-09-21T16:02:35;99491.09;;;19.10;47.49
11343;BME280;5726;42.160;24.746;2022-09-21T16:05:01;99496.69;;;19.28;47.54
11343;BME280;5726;42.160;24.746;2022-09-21T16:07:36;99504.31;;;19.23;47.26
11343;BME280;5726;42.160;24.746;2022-09-21T16:12:49;99504.69;;;18.98;48.33
11343;BME280;5726;42.160;24.746;2022-09-21T16:15:26;99505.38;;;18.95;48.92
11343;BME280;5726;42.160;24.746;2022-09-21T16:18:00;99501.41;;;18.92;49.07
11343;BME280;5726;42.160;24.746;2022-09-21T16:20:46;99507.63;;;18.93;49.27
11343;BME280;5726;42.160;24.746;2022-09-21T16:23:18;99506.53;;;18.82;49.69
11343;BME280;5726;42.160;24.746;2022-09-21T16:25:53;99513.44;;;18.79;50.04